sensor_id;sensor_type;location;lat;lon;timestamp;pressure;altitude;pressure_sealevel;temperature;humidity
74881;BME280;63427;49.654;6.596;2024-02-23T00:00:07;97574.76;;;6.64;43.26
74881;BME280;63427;49.654;6.596;2024-02-23T00:04:57;97591.97;;;6.86;41.27
74881;BME280;63427;49.654;6.596;2024-02-23T00:07:23;97615.25;;;5.59;41.09
74881;BME280;63427;49.654;6.596;2024-02-23T00:09:48;97609.81;;;6.39;40.54
74881;BME280;63427;49.654;6.596;2024-02-23T00:14:40;97610.18;;;6.67;40.09
74881;BME280;63427;49.654;6.596;2024-02-23T00:17:06;97611.60;;;7.24;39.69
74881;BME280;63427;49.654;6.596;2024-02-23T00:19:32;97611.53;;;7.21;40.01
74881;BME280;63427;49.654;6.596;2024-02-23T00:21:57;97613.05;;;7.86;40.25
74881;BME280;63427;49.654;6.596;2024-02-23T00:24:23;97612.45;;;7.86;40.79
74881;BME280;63427;49.654;6.596;2024-02-23T00:26:48;97614.28;;;7.93;41.33
74881;BME280;63427;49.654;6.596;2024-02-23T00:29:14;97614.10;;;7.17;41.86
74881;BME280;63427;49.654;6.596;2024-02-23T00:31:40;97617.43;;;7.53;41.54
74881;BME280;63427;49.654;6.596;2024-02-23T00:34:05;97619.05;;;7.38;42.02
74881;BME280;63427;49.654;6.596;2024-02-23T00:36:31;97622.86;;;7.02;42.85
74881;BME280;63427;49.654;6.596;2024-02-23T00:38:57;97614.18;;;7.28;41.99
74881;BME280;63427;49.654;6.596;2024-02-23T00:41:23;97621.16;;;6.80;42.41
74881;BME280;63427;49.654;6.596;2024-02-23T00:43:51;97629.27;;;7.33;41.74
74881;BME280;63427;49.654;6.596;2024-02-23T00:46:14;97641.09;;;6.19;43.26
74881;BME280;63427;49.654;6.596;2024-02-23T00:51:05;97647.28;;;6.27;43.98
74881;BME280;63427;49.654;6.596;2024-02-23T00:53:31;97650.47;;;6.39;43.52
74881;BME280;63427;49.654;6.596;2024-02-23T00:55:56;97652.34;;;6.11;43.37
74881;BME280;63427;49.654;6.596;2024-02-23T00:58:22;97649.47;;;5.90;44.29
74881;BME280;63427;49.654;6.596;2024-02-23T01:00:48;97646.14;;;5.69;43.63
74881;BME280;63427;49.654;6.596;2024-02-23T01:08:06;97655.56;;;6.97;41.09
74881;BME280;63427;49.654;6.596;2024-02-23T01:10:32;97649.18;;;6.91;40.48
74881;BME280;63427;49.654;6.596;2024-02-23T01:12:56;97648.98;;;7.71;40.06
74881;BME280;63427;49.654;6.596;2024-02-23T01:15:22;97654.67;;;6.69;41.67
74881;BME280;63427;49.654;6.596;2024-02-23T01:17:48;97655.13;;;7.19;40.97
74881;BME280;63427;49.654;6.596;2024-02-23T01:20:14;97650.03;;;7.48;40.39
74881;BME280;63427;49.654;6.596;2024-02-23T01:22:39;97652.29;;;7.42;40.79
74881;BME280;63427;49.654;6.596;2024-02-23T01:25:06;97661.11;;;7.49;40.71
74881;BME280;63427;49.654;6.596;2024-02-23T01:27:31;97665.33;;;7.51;40.94
74881;BME280;63427;49.654;6.596;2024-02-23T01:29:56;97665.34;;;7.24;42.24
74881;BME280;63427;49.654;6.596;2024-02-23T01:37:14;97672.90;;;7.17;43.47
74881;BME280;63427;49.654;6.596;2024-02-23T01:39:39;97663.79;;;7.15;42.68
74881;BME280;63427;49.654;6.596;2024-02-23T01:42:05;97672.77;;;6.79;43.92
74881;BME280;63427;49.654;6.596;2024-02-23T01:44:31;97681.77;;;7.00;43.17
74881;BME280;63427;49.654;6.596;2024-02-23T01:46:57;97674.03;;;7.44;42.15
74881;BME280;63427;49.654;6.596;2024-02-23T01:49:22;97694.20;;;6.53;42.97
74881;BME280;63427;49.654;6.596;2024-02-23T01:51:48;97691.84;;;7.45;42.09
74881;BME280;63427;49.654;6.596;2024-02-23T01:54:14;97700.05;;;7.10;42.29
74881;BME280;63427;49.654;6.596;2024-02-23T01:56:42;97698.36;;;7.38;41.68
74881;BME280;63427;49.654;6.596;2024-02-23T01:59:06;97695.54;;;7.55;41.89
74881;BME280;63427;49.654;6.596;2024-02-23T02:01:31;97699.63;;;7.78;41.33
74881;BME280;63427;49.654;6.596;2024-02-23T02:03:57;97708.20;;;7.60;42.25
74881;BME280;63427;49.654;6.596;2024-02-23T02:06:23;97712.39;;;7.56;41.59
74881;BME280;63427;49.654;6.596;2024-02-23T02:08:49;97712.81;;;6.98;42.90
74881;BME280;63427;49.654;6.596;2024-02-23T02:11:13;97723.27;;;6.77;43.24
74881;BME280;63427;49.654;6.596;2024-02-23T02:20:57;97724.44;;;6.76;43.64
74881;BME280;63427;49.654;6.596;2024-02-23T02:23:22;97722.36;;;6.83;43.48
74881;BME280;63427;49.654;6.596;2024-02-23T02:25:53;97727.00;;;6.62;44.66
74881;BME280;63427;49.654;6.596;2024-02-23T02:28:13;97720.16;;;6.29;45.40
74881;BME280;63427;49.654;6.596;2024-02-23T02:30:39;97722.76;;;6.49;45.00
74881;BME280;63427;49.654;6.596;2024-02-23T02:33:05;97713.75;;;6.53;44.45
74881;BME280;63427;49.654;6.596;2024-02-23T02:35:31;97709.54;;;6.65;44.00
74881;BME280;63427;49.654;6.596;2024-02-23T02:37:56;97715.94;;;6.96;44.03
74881;BME280;63427;49.654;6.596;2024-02-23T02:40:22;97723.02;;;6.84;43.62
74881;BME280;63427;49.654;6.596;2024-02-23T02:42:49;97717.03;;;7.29;42.55
74881;BME280;63427;49.654;6.596;2024-02-23T02:45:14;97720.31;;;6.26;44.44
74881;BME280;63427;49.654;6.596;2024-02-23T02:47:39;97721.32;;;6.28;44.43
74881;BME280;63427;49.654;6.596;2024-02-23T02:50:05;97717.49;;;6.64;43.44
74881;BME280;63427;49.654;6.596;2024-02-23T02:52:31;97716.59;;;6.69;43.82
74881;BME280;63427;49.654;6.596;2024-02-23T02:54:57;97722.74;;;6.73;43.75
74881;BME280;63427;49.654;6.596;2024-02-23T02:57:23;97722.11;;;6.89;43.48
74881;BME280;63427;49.654;6.596;2024-02-23T02:59:48;97722.93;;;6.62;42.98
74881;BME280;63427;49.654;6.596;2024-02-23T03:02:14;97726.55;;;6.77;43.17
74881;BME280;63427;49.654;6.596;2024-02-23T03:04:47;97733.12;;;6.79;42.79
74881;BME280;63427;49.654;6.596;2024-02-23T03:07:06;97735.48;;;6.47;43.62
74881;BME280;63427;49.654;6.596;2024-02-23T03:09:31;97738.95;;;6.78;43.17
74881;BME280;63427;49.654;6.596;2024-02-23T03:11:57;97741.25;;;6.61;42.86
74881;BME280;63427;49.654;6.596;2024-02-23T03:14:22;97743.41;;;7.37;42.48
74881;BME280;63427;49.654;6.596;2024-02-23T03:16:49;97746.51;;;6.55;43.14
74881;BME280;63427;49.654;6.596;2024-02-23T03:19:14;97741.91;;;6.84;42.57
74881;BME280;63427;49.654;6.596;2024-02-23T03:21:40;97746.94;;;6.69;42.79
74881;BME280;63427;49.654;6.596;2024-02-23T03:24:05;97743.14;;;6.97;42.65
74881;BME280;63427;49.654;6.596;2024-02-23T03:26:31;97731.82;;;7.52;41.67
74881;BME280;63427;49.654;6.596;2024-02-23T03:28:57;97734.80;;;7.33;41.28
74881;BME280;63427;49.654;6.596;2024-02-23T03:31:22;97729.20;;;7.46;41.37
74881;BME280;63427;49.654;6.596;2024-02-23T03:33:50;97723.41;;;7.21;41.78
74881;BME280;63427;49.654;6.596;2024-02-23T03:36:14;97717.53;;;6.98;41.70
74881;BME280;63427;49.654;6.596;2024-02-23T03:38:39;97716.56;;;7.47;41.35
74881;BME280;63427;49.654;6.596;2024-02-23T03:41:05;97724.60;;;7.01;42.52
74881;BME280;63427;49.654;6.596;2024-02-23T03:43:31;97719.61;;;6.53;43.33
74881;BME280;63427;49.654;6.596;2024-02-23T03:45:56;97724.14;;;6.69;43.14
74881;BME280;63427;49.654;6.596;2024-02-23T03:48:22;97722.14;;;6.69;42.63
74881;BME280;63427;49.654;6.596;2024-02-23T03:50:47;97719.89;;;6.85;42.70
74881;BME280;63427;49.654;6.596;2024-02-23T03:53:13;97718.18;;;6.52;43.28
74881;BME280;63427;49.654;6.596;2024-02-23T03:55:39;97724.59;;;6.97;42.43
74881;BME280;63427;49.654;6.596;2024-02-23T03:58:05;97717.11;;;7.01;42.16
74881;BME280;63427;49.654;6.596;2024-02-23T04:00:31;97713.03;;;6.51;42.80
74881;BME280;63427;49.654;6.596;2024-02-23T04:02:56;97711.12;;;6.82;41.98
74881;BME280;63427;49.654;6.596;2024-02-23T04:05:22;97714.90;;;7.00;42.44
74881;BME280;63427;49.654;6.596;2024-02-23T04:07:51;97709.60;;;6.89;41.91
74881;BME280;63427;49.654;6.596;2024-02-23T04:15:06;97711.02;;;7.19;41.41
74881;BME280;63427;49.654;6.596;2024-02-23T04:17:31;97708.50;;;7.19;40.55
74881;BME280;63427;49.654;6.596;2024-02-23T04:19:57;97708.64;;;7.44;40.04
74881;BME280;63427;49.654;6.596;2024-02-23T04:22:22;97709.59;;;7.15;41.27
74881;BME280;63427;49.654;6.596;2024-02-23T04:24:49;97705.36;;;7.30;40.91
74881;BME280;63427;49.654;6.596;2024-02-23T04:27:14;97710.59;;;7.28;40.84
74881;BME280;63427;49.654;6.596;2024-02-23T04:29:40;97705.46;;;7.41;40.79
74881;BME280;63427;49.654;6.596;2024-02-23T04:32:06;97704.64;;;6.62;41.26
74881;BME280;63427;49.654;6.596;2024-02-23T04:34:32;97705.71;;;6.68;41.79
74881;BME280;63427;49.654;6.596;2024-02-23T04:36:58;97706.98;;;6.66;42.13
74881;BME280;63427;49.654;6.596;2024-02-23T04:39:23;97711.39;;;6.91;41.32
74881;BME280;63427;49.654;6.596;2024-02-23T04:41:49;97716.13;;;6.42;42.01
74881;BME280;63427;49.654;6.596;2024-02-23T04:44:14;97712.91;;;6.86;41.74
74881;BME280;63427;49.654;6.596;2024-02-23T04:46:40;97715.39;;;6.81;41.43
74881;BME280;63427;49.654;6.596;2024-02-23T04:49:06;97722.65;;;7.07;41.23
74881;BME280;63427;49.654;6.596;2024-02-23T04:51:32;97718.22;;;6.62;41.32
74881;BME280;63427;49.654;6.596;2024-02-23T04:56:23;97717.76;;;7.08;40.99
74881;BME280;63427;49.654;6.596;2024-02-23T04:58:54;97710.95;;;6.87;41.18
74881;BME280;63427;49.654;6.596;2024-02-23T05:01:15;97712.73;;;7.58;41.01
74881;BME280;63427;49.654;6.596;2024-02-23T05:03:40;97710.71;;;7.87;40.45
74881;BME280;63427;49.654;6.596;2024-02-23T05:06:07;97710.64;;;7.79;40.08
74881;BME280;63427;49.654;6.596;2024-02-23T05:08:32;97713.33;;;7.39;40.96
74881;BME280;63427;49.654;6.596;2024-02-23T05:10:58;97706.69;;;7.16;40.72
74881;BME280;63427;49.654;6.596;2024-02-23T05:13:24;97705.88;;;7.48;40.68
74881;BME280;63427;49.654;6.596;2024-02-23T05:15:50;97703.01;;;7.70;40.36
74881;BME280;63427;49.654;6.596;2024-02-23T05:18:15;97701.76;;;7.46;40.56
74881;BME280;63427;49.654;6.596;2024-02-23T05:20:41;97697.09;;;7.41;40.89
74881;BME280;63427;49.654;6.596;2024-02-23T05:23:07;97695.09;;;7.60;40.25
74881;BME280;63427;49.654;6.596;2024-02-23T05:25:32;97693.81;;;7.36;39.83
74881;BME280;63427;49.654;6.596;2024-02-23T05:27:58;97686.63;;;7.83;40.12
74881;BME280;63427;49.654;6.596;2024-02-23T05:30:24;97679.73;;;7.54;39.55
74881;BME280;63427;49.654;6.596;2024-02-23T05:32:49;97679.08;;;7.79;39.22
74881;BME280;63427;49.654;6.596;2024-02-23T05:35:16;97681.17;;;7.37;39.62
74881;BME280;63427;49.654;6.596;2024-02-23T05:37:41;97683.26;;;7.79;39.92
74881;BME280;63427;49.654;6.596;2024-02-23T05:40:07;97672.22;;;7.56;39.64
74881;BME280;63427;49.654;6.596;2024-02-23T05:42:32;97676.12;;;7.97;39.11
74881;BME280;63427;49.654;6.596;2024-02-23T05:44:58;97675.11;;;7.26;39.70
74881;BME280;63427;49.654;6.596;2024-02-23T05:47:24;97675.86;;;7.51;39.82
74881;BME280;63427;49.654;6.596;2024-02-23T05:49:51;97675.74;;;7.54;39.53
74881;BME280;63427;49.654;6.596;2024-02-23T05:52:15;97670.86;;;7.74;39.82
74881;BME280;63427;49.654;6.596;2024-02-23T05:54:41;97673.05;;;6.43;39.99
74881;BME280;63427;49.654;6.596;2024-02-23T05:57:06;97668.86;;;7.32;39.22
74881;BME280;63427;49.654;6.596;2024-02-23T05:59:32;97665.29;;;7.47;39.68
74881;BME280;63427;49.654;6.596;2024-02-23T06:16:32;97663.83;;;7.80;39.02
74881;BME280;63427;49.654;6.596;2024-02-23T06:18:58;97663.22;;;8.02;38.90
74881;BME280;63427;49.654;6.596;2024-02-23T06:21:23;97662.88;;;7.88;38.97
74881;BME280;63427;49.654;6.596;2024-02-23T06:23:53;97661.02;;;7.58;39.95
74881;BME280;63427;49.654;6.596;2024-02-23T06:28:42;97656.29;;;7.22;40.96
74881;BME280;63427;49.654;6.596;2024-02-23T06:33:32;97647.99;;;7.70;39.95
74881;BME280;63427;49.654;6.596;2024-02-23T06:35:58;97639.27;;;7.53;39.70
74881;BME280;63427;49.654;6.596;2024-02-23T06:38:23;97649.28;;;7.56;39.56
74881;BME280;63427;49.654;6.596;2024-02-23T06:40:49;97652.38;;;7.50;39.53
74881;BME280;63427;49.654;6.596;2024-02-23T06:43:15;97657.29;;;7.26;39.71
74881;BME280;63427;49.654;6.596;2024-02-23T06:45:41;97651.35;;;7.58;40.06
74881;BME280;63427;49.654;6.596;2024-02-23T06:48:07;97646.40;;;7.68;39.39
74881;BME280;63427;49.654;6.596;2024-02-23T06:53:02;97646.76;;;7.93;39.24
74881;BME280;63427;49.654;6.596;2024-02-23T06:55:24;97653.08;;;7.72;39.81
74881;BME280;63427;49.654;6.596;2024-02-23T07:00:15;97657.37;;;7.99;39.34
74881;BME280;63427;49.654;6.596;2024-02-23T07:07:33;97665.06;;;8.17;38.58
74881;BME280;63427;49.654;6.596;2024-02-23T07:19:42;97677.05;;;8.03;39.62
74881;BME280;63427;49.654;6.596;2024-02-23T07:22:07;97669.91;;;8.12;39.21
74881;BME280;63427;49.654;6.596;2024-02-23T07:24:32;97675.09;;;7.90;39.28
74881;BME280;63427;49.654;6.596;2024-02-23T07:31:50;97670.94;;;8.03;38.87
74881;BME280;63427;49.654;6.596;2024-02-23T07:34:15;97672.45;;;8.44;38.86
74881;BME280;63427;49.654;6.596;2024-02-23T07:36:41;97676.20;;;8.30;39.04
74881;BME280;63427;49.654;6.596;2024-02-23T07:39:07;97671.89;;;8.03;39.61
74881;BME280;63427;49.654;6.596;2024-02-23T07:43:58;97681.31;;;7.53;39.83
74881;BME280;63427;49.654;6.596;2024-02-23T07:46:24;97685.56;;;8.08;40.23
74881;BME280;63427;49.654;6.596;2024-02-23T07:48:49;97683.81;;;8.17;39.15
74881;BME280;63427;49.654;6.596;2024-02-23T07:51:15;97685.96;;;8.97;38.58
74881;BME280;63427;49.654;6.596;2024-02-23T07:53:41;97681.12;;;7.91;39.84
74881;BME280;63427;49.654;6.596;2024-02-23T07:56:08;97677.75;;;7.77;40.03
74881;BME280;63427;49.654;6.596;2024-02-23T07:58:32;97684.42;;;7.84;39.64
74881;BME280;63427;49.654;6.596;2024-02-23T08:00:58;97682.06;;;8.15;39.69
74881;BME280;63427;49.654;6.596;2024-02-23T08:03:24;97686.53;;;7.96;40.41
74881;BME280;63427;49.654;6.596;2024-02-23T08:05:50;97686.70;;;8.20;39.87
74881;BME280;63427;49.654;6.596;2024-02-23T08:08:15;97687.78;;;8.42;39.07
74881;BME280;63427;49.654;6.596;2024-02-23T08:22:48;97672.70;;;8.33;39.41
74881;BME280;63427;49.654;6.596;2024-02-23T08:25:14;97666.59;;;8.25;38.90
74881;BME280;63427;49.654;6.596;2024-02-23T08:27:41;97671.73;;;8.53;39.15
74881;BME280;63427;49.654;6.596;2024-02-23T08:30:07;97674.48;;;8.69;38.88
74881;BME280;63427;49.654;6.596;2024-02-23T08:32:31;97672.22;;;9.05;39.06
74881;BME280;63427;49.654;6.596;2024-02-23T08:34:57;97683.49;;;8.79;39.30
74881;BME280;63427;49.654;6.596;2024-02-23T08:37:22;97686.61;;;8.41;39.12
74881;BME280;63427;49.654;6.596;2024-02-23T08:39:48;97688.80;;;8.18;39.70
74881;BME280;63427;49.654;6.596;2024-02-23T08:42:13;97708.12;;;8.36;39.16
74881;BME280;63427;49.654;6.596;2024-02-23T08:44:39;97690.79;;;8.68;39.99
74881;BME280;63427;49.654;6.596;2024-02-23T08:47:05;97707.90;;;7.36;42.07
74881;BME280;63427;49.654;6.596;2024-02-23T08:49:30;97702.38;;;7.65;41.83
74881;BME280;63427;49.654;6.596;2024-02-23T08:51:56;97710.64;;;7.19;42.99
74881;BME280;63427;49.654;6.596;2024-02-23T08:59:13;97709.39;;;7.96;40.94
74881;BME280;63427;49.654;6.596;2024-02-23T09:01:39;97717.92;;;8.09;40.57
74881;BME280;63427;49.654;6.596;2024-02-23T09:04:04;97720.72;;;8.13;39.80
74881;BME280;63427;49.654;6.596;2024-02-23T09:19:02;97714.22;;;9.36;38.60
74881;BME280;63427;49.654;6.596;2024-02-23T09:21:04;97716.73;;;8.78;38.68
74881;BME280;63427;49.654;6.596;2024-02-23T09:38:03;97707.91;;;9.01;38.69
74881;BME280;63427;49.654;6.596;2024-02-23T09:40:33;97704.50;;;9.19;37.85
74881;BME280;63427;49.654;6.596;2024-02-23T09:47:47;97711.26;;;8.87;37.58
74881;BME280;63427;49.654;6.596;2024-02-23T09:52:38;97716.17;;;10.31;35.83
74881;BME280;63427;49.654;6.596;2024-02-23T09:55:03;97715.53;;;10.43;34.91
74881;BME280;63427;49.654;6.596;2024-02-23T10:16:53;97724.72;;;10.20;35.55
74881;BME280;63427;49.654;6.596;2024-02-23T10:19:19;97731.27;;;9.54;36.15
74881;BME280;63427;49.654;6.596;2024-02-23T10:21:47;97725.58;;;10.49;35.39
74881;BME280;63427;49.654;6.596;2024-02-23T10:29:01;97721.41;;;10.32;35.02
74881;BME280;63427;49.654;6.596;2024-02-23T10:31:27;97726.24;;;10.57;34.55
74881;BME280;63427;49.654;6.596;2024-02-23T10:33:52;97723.55;;;10.84;33.75
74881;BME280;63427;49.654;6.596;2024-02-23T10:36:18;97725.37;;;9.82;35.27
74881;BME280;63427;49.654;6.596;2024-02-23T10:48:27;97742.59;;;9.83;34.60
74881;BME280;63427;49.654;6.596;2024-02-23T10:50:51;97736.46;;;10.18;35.23
74881;BME280;63427;49.654;6.596;2024-02-23T11:24:49;97701.24;;;10.90;34.59
74881;BME280;63427;49.654;6.596;2024-02-23T11:29:40;97687.89;;;11.47;33.72
74881;BME280;63427;49.654;6.596;2024-02-23T11:32:12;97693.85;;;11.79;33.46
74881;BME280;63427;49.654;6.596;2024-02-23T11:34:31;97690.23;;;11.59;32.52
74881;BME280;63427;49.654;6.596;2024-02-23T12:01:12;97678.27;;;11.08;32.35
74881;BME280;63427;49.654;6.596;2024-02-23T12:03:38;97683.24;;;10.54;33.18
74881;BME280;63427;49.654;6.596;2024-02-23T12:06:04;97678.79;;;11.39;32.35
74881;BME280;63427;49.654;6.596;2024-02-23T12:08:34;97681.43;;;11.56;32.13
74881;BME280;63427;49.654;6.596;2024-02-23T12:10:55;97687.50;;;11.23;33.03
74881;BME280;63427;49.654;6.596;2024-02-23T12:13:24;97686.67;;;11.26;33.09
74881;BME280;63427;49.654;6.596;2024-02-23T12:15:45;97684.77;;;10.78;32.62
74881;BME280;63427;49.654;6.596;2024-02-23T12:18:10;97687.92;;;10.72;32.94
74881;BME280;63427;49.654;6.596;2024-02-23T12:20:37;97682.35;;;11.16;33.38
74881;BME280;63427;49.654;6.596;2024-02-23T12:25:28;97681.30;;;10.99;35.15
74881;BME280;63427;49.654;6.596;2024-02-23T12:27:55;97680.85;;;11.23;34.45
74881;BME280;63427;49.654;6.596;2024-02-23T12:30:18;97671.40;;;11.58;33.71
74881;BME280;63427;49.654;6.596;2024-02-23T12:32:43;97657.34;;;11.97;33.39
74881;BME280;63427;49.654;6.596;2024-02-23T12:35:11;97649.56;;;12.58;33.01
74881;BME280;63427;49.654;6.596;2024-02-23T12:37:35;97650.48;;;14.05;32.49
74881;BME280;63427;49.654;6.596;2024-02-23T12:40:00;97637.75;;;13.99;29.31
74881;BME280;63427;49.654;6.596;2024-02-23T13:43:00;97617.86;;;13.67;29.08
74881;BME280;63427;49.654;6.596;2024-02-23T13:45:26;97617.37;;;13.16;28.08
74881;BME280;63427;49.654;6.596;2024-02-23T13:50:17;97617.10;;;14.65;28.91
74881;BME280;63427;49.654;6.596;2024-02-23T13:52:47;97615.87;;;13.70;28.02
74881;BME280;63427;49.654;6.596;2024-02-23T13:55:08;97607.92;;;14.42;28.75
74881;BME280;63427;49.654;6.596;2024-02-23T13:57:33;97602.11;;;15.27;27.62
74881;BME280;63427;49.654;6.596;2024-02-23T13:59:59;97600.39;;;14.53;27.99
74881;BME280;63427;49.654;6.596;2024-02-23T14:02:25;97602.63;;;14.82;27.87
74881;BME280;63427;49.654;6.596;2024-02-23T14:04:48;97594.52;;;13.76;28.39
74881;BME280;63427;49.654;6.596;2024-02-23T14:07:14;97597.85;;;13.76;28.95
74881;BME280;63427;49.654;6.596;2024-02-23T14:12:05;97598.29;;;14.88;28.00
74881;BME280;63427;49.654;6.596;2024-02-23T14:14:30;97595.15;;;14.27;27.34
74881;BME280;63427;49.654;6.596;2024-02-23T14:17:03;97596.84;;;13.68;27.76
74881;BME280;63427;49.654;6.596;2024-02-23T14:19:21;97594.33;;;13.90;27.93
74881;BME280;63427;49.654;6.596;2024-02-23T14:21:48;97587.87;;;14.14;27.24
74881;BME280;63427;49.654;6.596;2024-02-23T14:24:12;97589.60;;;14.15;27.22
74881;BME280;63427;49.654;6.596;2024-02-23T14:26:37;97597.51;;;13.07;28.78
74881;BME280;63427;49.654;6.596;2024-02-23T14:31:29;97593.89;;;13.61;28.30
74881;BME280;63427;49.654;6.596;2024-02-23T14:33:55;97596.73;;;13.42;28.37
74881;BME280;63427;49.654;6.596;2024-02-23T14:36:19;97595.06;;;12.23;28.99
74881;BME280;63427;49.654;6.596;2024-02-23T14:38:44;97597.37;;;14.25;28.75
74881;BME280;63427;49.654;6.596;2024-02-23T14:41:09;97599.28;;;14.75;28.42
74881;BME280;63427;49.654;6.596;2024-02-23T14:43:35;97583.85;;;15.36;26.37
74881;BME280;63427;49.654;6.596;2024-02-23T14:46:00;97578.14;;;15.46;26.19
74881;BME280;63427;49.654;6.596;2024-02-23T14:48:26;97576.99;;;14.88;26.17
74881;BME280;63427;49.654;6.596;2024-02-23T14:50:54;97569.24;;;15.82;25.93
74881;BME280;63427;49.654;6.596;2024-02-23T14:53:16;97573.84;;;15.93;25.00
74881;BME280;63427;49.654;6.596;2024-02-23T14:55:42;97573.14;;;15.42;25.63
74881;BME280;63427;49.654;6.596;2024-02-23T14:58:07;97575.64;;;14.62;26.67
74881;BME280;63427;49.654;6.596;2024-02-23T15:00:32;97574.64;;;16.26;26.29
74881;BME280;63427;49.654;6.596;2024-02-23T15:05:23;97573.88;;;15.05;24.81
74881;BME280;63427;49.654;6.596;2024-02-23T15:07:54;97579.01;;;14.78;25.24
74881;BME280;63427;49.654;6.596;2024-02-23T15:10:15;97576.58;;;14.55;26.30
74881;BME280;63427;49.654;6.596;2024-02-23T15:12:40;97569.33;;;15.20;26.44
74881;BME280;63427;49.654;6.596;2024-02-23T15:15:05;97572.37;;;15.01;25.36
74881;BME280;63427;49.654;6.596;2024-02-23T15:17:31;97567.42;;;15.87;25.08
74881;BME280;63427;49.654;6.596;2024-02-23T15:19:56;97562.78;;;14.88;25.47
74881;BME280;63427;49.654;6.596;2024-02-23T15:24:46;97561.71;;;15.18;27.23
74881;BME280;63427;49.654;6.596;2024-02-23T15:27:11;97567.10;;;14.64;27.81
74881;BME280;63427;49.654;6.596;2024-02-23T15:29:36;97566.42;;;14.79;27.71
74881;BME280;63427;49.654;6.596;2024-02-23T15:32:02;97560.18;;;14.88;26.80
74881;BME280;63427;49.654;6.596;2024-02-23T15:34:27;97562.95;;;14.60;28.39
74881;BME280;63427;49.654;6.596;2024-02-23T15:36:52;97565.24;;;14.70;27.49
74881;BME280;63427;49.654;6.596;2024-02-23T15:39:18;97566.25;;;15.07;27.68
74881;BME280;63427;49.654;6.596;2024-02-23T15:41:43;97564.08;;;14.84;27.97
74881;BME280;63427;49.654;6.596;2024-02-23T15:44:09;97563.10;;;14.52;26.72
74881;BME280;63427;49.654;6.596;2024-02-23T15:48:59;97565.08;;;13.99;28.12
74881;BME280;63427;49.654;6.596;2024-02-23T15:51:25;97569.58;;;14.17;28.48
74881;BME280;63427;49.654;6.596;2024-02-23T15:53:59;97571.84;;;13.98;28.75
74881;BME280;63427;49.654;6.596;2024-02-23T15:56:16;97578.51;;;13.85;28.74
74881;BME280;63427;49.654;6.596;2024-02-23T15:58:42;97579.39;;;13.19;29.13
74881;BME280;63427;49.654;6.596;2024-02-23T16:01:06;97584.79;;;14.25;28.42
74881;BME280;63427;49.654;6.596;2024-02-23T16:03:32;97585.84;;;13.00;29.43
74881;BME280;63427;49.654;6.596;2024-02-23T16:10:52;97581.16;;;13.50;29.76
74881;BME280;63427;49.654;6.596;2024-02-23T16:13:15;97584.03;;;13.53;29.72
74881;BME280;63427;49.654;6.596;2024-02-23T16:15:39;97581.65;;;13.32;30.39
74881;BME280;63427;49.654;6.596;2024-02-23T16:18:04;97579.06;;;12.98;30.62
74881;BME280;63427;49.654;6.596;2024-02-23T16:20:30;97578.62;;;12.80;31.11
74881;BME280;63427;49.654;6.596;2024-02-23T16:22:56;97583.48;;;12.68;31.14
74881;BME280;63427;49.654;6.596;2024-02-23T16:25:23;97585.85;;;12.33;32.96
74881;BME280;63427;49.654;6.596;2024-02-23T16:27:47;97581.16;;;12.34;31.59
74881;BME280;63427;49.654;6.596;2024-02-23T16:30:13;97580.11;;;12.05;31.64
74881;BME280;63427;49.654;6.596;2024-02-23T16:32:42;97577.46;;;12.19;32.33
74881;BME280;63427;49.654;6.596;2024-02-23T16:39:54;97566.20;;;11.59;33.31
74881;BME280;63427;49.654;6.596;2024-02-23T16:42:20;97565.61;;;11.86;32.82
74881;BME280;63427;49.654;6.596;2024-02-23T16:44:44;97561.10;;;11.65;34.43
74881;BME280;63427;49.654;6.596;2024-02-23T16:47:10;97564.70;;;11.60;34.04
74881;BME280;63427;49.654;6.596;2024-02-23T16:49:35;97567.46;;;11.65;34.83
74881;BME280;63427;49.654;6.596;2024-02-23T16:52:01;97574.93;;;11.46;34.69
74881;BME280;63427;49.654;6.596;2024-02-23T16:54:30;97576.38;;;11.42;34.58
74881;BME280;63427;49.654;6.596;2024-02-23T16:56:52;97575.70;;;11.38;35.44
74881;BME280;63427;49.654;6.596;2024-02-23T16:59:18;97578.88;;;10.53;36.07
74881;BME280;63427;49.654;6.596;2024-02-23T17:01:43;97578.02;;;10.79;36.02
74881;BME280;63427;49.654;6.596;2024-02-23T17:09:02;97593.42;;;10.12;36.55
74881;BME280;63427;49.654;6.596;2024-02-23T17:11:26;97594.54;;;10.20;37.43
74881;BME280;63427;49.654;6.596;2024-02-23T17:13:51;97600.38;;;10.59;37.40
74881;BME280;63427;49.654;6.596;2024-02-23T17:16:17;97597.38;;;10.61;37.10
74881;BME280;63427;49.654;6.596;2024-02-23T17:18:42;97596.18;;;10.50;37.64
74881;BME280;63427;49.654;6.596;2024-02-23T17:21:08;97599.06;;;10.64;37.11
74881;BME280;63427;49.654;6.596;2024-02-23T17:23:34;97604.93;;;9.74;38.34
74881;BME280;63427;49.654;6.596;2024-02-23T17:28:31;97607.56;;;9.92;38.34
74881;BME280;63427;49.654;6.596;2024-02-23T17:30:51;97609.42;;;9.88;38.28
74881;BME280;63427;49.654;6.596;2024-02-23T17:33:24;97614.98;;;10.08;37.39
74881;BME280;63427;49.654;6.596;2024-02-23T17:40:33;97621.68;;;9.51;38.01
74881;BME280;63427;49.654;6.596;2024-02-23T17:47:50;97628.37;;;9.65;38.46
74881;BME280;63427;49.654;6.596;2024-02-23T17:50:16;97627.73;;;9.05;39.12
74881;BME280;63427;49.654;6.596;2024-02-23T17:52:50;97622.62;;;9.42;38.88
74881;BME280;63427;49.654;6.596;2024-02-23T17:55:07;97619.67;;;9.06;38.84
74881;BME280;63427;49.654;6.596;2024-02-23T17:57:33;97626.83;;;9.57;38.98
74881;BME280;63427;49.654;6.596;2024-02-23T17:59:59;97624.74;;;9.12;38.88
74881;BME280;63427;49.654;6.596;2024-02-23T18:02:24;97630.53;;;9.52;39.31
74881;BME280;63427;49.654;6.596;2024-02-23T18:04:51;97626.33;;;9.83;37.64
74881;BME280;63427;49.654;6.596;2024-02-23T18:07:16;97631.37;;;9.57;38.57
74881;BME280;63427;49.654;6.596;2024-02-23T18:09:41;97633.54;;;9.57;38.24
74881;BME280;63427;49.654;6.596;2024-02-23T18:12:07;97633.88;;;9.64;36.80
74881;BME280;63427;49.654;6.596;2024-02-23T18:19:30;97632.17;;;9.22;38.00
74881;BME280;63427;49.654;6.596;2024-02-23T18:21:54;97633.83;;;9.69;38.08
74881;BME280;63427;49.654;6.596;2024-02-23T18:24:15;97635.66;;;9.65;36.92
74881;BME280;63427;49.654;6.596;2024-02-23T18:26:41;97632.97;;;9.28;37.93